Time;durP1;ratioP1;P1;durP2;ratioP2;P2;SDS_P1;SDS_P2;PMS_P1;PMS_P2;Temp;Humidity;BMP_temperature;BMP_pressure;BME280_temperature;BME280_humidity;BME280_pressure;Samples;Min_cycle;Max_cycle;Signal;HPM_P1;HPM_P2
2022/05/19 00:01:39;;;;;;;;;;;;;;;15.88;33.64;100754.59;4446656;32;35416;-66
2022/05/19 00:04:07;;;;;;;;;;;;;;;15.82;33.73;100755.09;4451641;32;35135;-65
2022/05/19 00:06:35;;;;;;;;;;;;;;;15.86;32.85;100759.28;4449071;32;33460;-65
2022/05/19 00:09:02;;;;;;;;;;;;;;;15.85;33.27;100754.84;4441956;32;35523;-66
2022/05/19 00:11:31;;;;;;;;;;;;;;;15.81;33.26;100758.78;4449027;32;34164;-65
2022/05/19 00:13:58;;;;;;;;;;;;;;;15.70;33.30;100754.25;4447898;32;34313;-63
2022/05/19 00:16:26;;;;;;;;;;;;;;;15.54;34.40;100756.44;4442951;32;34733;-63
2022/05/19 00:18:54;;;;;;;;;;;;;;;15.20;35.25;100766.31;4446492;32;32361;-65
2022/05/19 00:21:21;;;;;;;;;;;;;;;15.41;34.40;100764.62;4448650;32;34455;-65
2022/05/19 00:23:49;;;;;;;;;;;;;;;15.33;34.38;100758.97;4445160;32;34399;-65
2022/05/19 00:26:17;;;;;;;;;;;;;;;15.03;35.13;100763.09;4449653;32;33590;-63
2022/05/19 00:28:44;;;;;;;;;;;;;;;15.16;34.97;100760.31;4448224;32;34592;-64
2022/05/19 00:31:11;;;;;;;;;;;;;;;15.26;34.48;100760.44;4445004;32;33313;-65
2022/05/19 00:33:39;;;;;;;;;;;;;;;15.38;34.03;100756.78;4448848;32;35360;-64
2022/05/19 00:36:10;;;;;;;;;;;;;;;15.44;33.91;100767.09;4448108;32;33551;-65
2022/05/19 00:38:38;;;;;;;;;;;;;;;15.20;34.07;100759.06;4449491;32;33876;-63
2022/05/19 00:41:06;;;;;;;;;;;;;;;14.82;35.48;100760.19;4449510;32;34344;-65
2022/05/19 00:43:35;;;;;;;;;;;;;;;14.53;35.60;100757.03;4446267;32;34499;-63
2022/05/19 00:46:02;;;;;;;;;;;;;;;14.88;34.29;100758.87;4448735;32;33518;-66
2022/05/19 00:48:35;;;;;;;;;;;;;;;14.87;34.29;100758.03;4444276;32;35339;-66
2022/05/19 00:51:03;;;;;;;;;;;;;;;15.07;34.19;100769.09;4447038;32;34233;-67
2022/05/19 00:53:34;;;;;;;;;;;;;;;15.14;33.78;100755.00;4444451;32;34104;-67
2022/05/19 00:56:03;;;;;;;;;;;;;;;15.21;33.14;100762.63;4451617;32;33619;-65
2022/05/19 00:58:35;;;;;;;;;;;;;;;15.17;33.37;100758.47;4445878;32;34177;-64
2022/05/19 01:01:02;;;;;;;;;;;;;;;15.06;33.90;100762.00;4447616;32;35387;-66
2022/05/19 01:03:33;;;;;;;;;;;;;;;14.82;34.17;100753.94;4446453;32;34320;-66
2022/05/19 01:06:02;;;;;;;;;;;;;;;14.76;34.42;100757.09;4446014;32;33149;-66
2022/05/19 01:08:32;;;;;;;;;;;;;;;14.69;35.84;100756.72;4446400;32;32764;-65
2022/05/19 01:11:00;;;;;;;;;;;;;;;14.87;34.08;100746.38;4449846;32;34399;-66
2022/05/19 01:13:30;;;;;;;;;;;;;;;14.91;34.04;100753.25;4445903;32;33791;-66
2022/05/19 01:15:58;;;;;;;;;;;;;;;14.91;34.63;100755.94;4448184;32;34528;-66
2022/05/19 01:18:26;;;;;;;;;;;;;;;14.76;35.04;100762.50;4447552;32;34155;-68
2022/05/19 01:20:54;;;;;;;;;;;;;;;14.87;34.33;100759.84;4444285;32;34507;-67
2022/05/19 01:23:40;;;;;;;;;;;;;;;14.87;34.29;100749.06;4442648;32;35271;-65
2022/05/19 01:26:17;;;;;;;;;;;;;;;14.86;34.22;100741.94;4440803;32;33242;-67
2022/05/19 01:28:45;;;;;;;;;;;;;;;14.92;33.74;100746.88;4452104;32;33766;-67
2022/05/19 01:31:28;;;;;;;;;;;;;;;14.98;33.82;100746.41;4431685;32;34247;-69
2022/05/19 01:33:55;;;;;;;;;;;;;;;15.04;33.73;100748.63;4449000;32;32894;-69
2022/05/19 01:36:23;;;;;;;;;;;;;;;15.11;33.52;100749.84;4450187;32;33616;-70
2022/05/19 01:38:55;;;;;;;;;;;;;;;15.25;33.59;100742.53;4444169;32;32767;-69
2022/05/19 01:41:32;;;;;;;;;;;;;;;15.31;33.10;100742.94;4443025;32;34926;-69
2022/05/19 01:44:08;;;;;;;;;;;;;;;15.45;33.10;100736.44;4443566;32;35092;-69
2022/05/19 01:46:37;;;;;;;;;;;;;;;15.49;34.15;100745.13;4442947;32;33637;-67
2022/05/19 01:49:15;;;;;;;;;;;;;;;15.57;32.85;100743.56;4438734;32;33983;-68
2022/05/19 01:51:47;;;;;;;;;;;;;;;15.54;33.10;100746.50;4434372;32;32787;-67
2022/05/19 01:54:14;;;;;;;;;;;;;;;15.63;32.77;100749.41;4438572;32;34539;-68
2022/05/19 01:56:43;;;;;;;;;;;;;;;15.65;33.43;100739.38;4435371;32;32269;-67
2022/05/19 01:59:12;;;;;;;;;;;;;;;15.67;33.46;100751.81;4445776;32;34317;-68
2022/05/19 02:01:42;;;;;;;;;;;;;;;15.40;34.42;100753.94;4446033;32;33054;-67
2022/05/19 02:04:17;;;;;;;;;;;;;;;15.52;33.69;100755.69;4441191;32;34230;-65
2022/05/19 02:06:52;;;;;;;;;;;;;;;15.47;33.69;100757.88;4446904;32;32347;-65
2022/05/19 02:09:21;;;;;;;;;;;;;;;15.12;34.60;100762.37;4440944;32;34566;-65
2022/05/19 02:11:54;;;;;;;;;;;;;;;15.40;33.84;100768.28;4445686;32;33731;-66
2022/05/19 02:14:25;;;;;;;;;;;;;;;15.24;33.95;100763.25;4447765;32;34053;-68
2022/05/19 02:16:54;;;;;;;;;;;;;;;15.13;34.79;100753.31;4443107;32;33574;-66
2022/05/19 02:19:23;;;;;;;;;;;;;;;15.21;34.31;100760.78;4446387;32;32968;-66
2022/05/19 02:21:54;;;;;;;;;;;;;;;15.17;34.10;100755.75;4444742;32;35458;-67
2022/05/19 02:24:24;;;;;;;;;;;;;;;15.13;34.66;100753.31;4444208;32;32968;-66
2022/05/19 02:26:52;;;;;;;;;;;;;;;15.13;35.34;100753.31;4445301;32;31923;-65
2022/05/19 02:29:22;;;;;;;;;;;;;;;15.00;35.48;100762.47;4446535;32;35307;-68
2022/05/19 02:31:51;;;;;;;;;;;;;;;15.06;35.16;100760.16;4441211;32;34829;-66
2022/05/19 02:34:20;;;;;;;;;;;;;;;14.93;35.44;100766.59;4448748;32;34560;-67
2022/05/19 02:36:49;;;;;;;;;;;;;;;15.01;35.10;100767.72;4447909;32;32275;-67
2022/05/19 02:39:18;;;;;;;;;;;;;;;15.02;35.01;100766.75;4446626;32;35374;-67
2022/05/19 02:41:46;;;;;;;;;;;;;;;14.97;34.97;100776.19;4439107;32;34147;-66
2022/05/19 02:44:16;;;;;;;;;;;;;;;14.89;35.04;100783.03;4438940;32;34481;-65
2022/05/19 02:46:44;;;;;;;;;;;;;;;14.84;35.04;100781.66;4447831;32;33377;-65
2022/05/19 02:49:12;;;;;;;;;;;;;;;14.72;35.44;100780.75;4449156;32;34563;-66
2022/05/19 02:51:41;;;;;;;;;;;;;;;14.68;35.77;100776.56;4447612;32;33588;-65
2022/05/19 02:54:09;;;;;;;;;;;;;;;14.69;35.83;100780.97;4447083;32;35214;-68
2022/05/19 02:56:38;;;;;;;;;;;;;;;14.63;36.04;100781.44;4444356;32;32609;-67
2022/05/19 02:59:07;;;;;;;;;;;;;;;14.54;36.05;100783.00;4447685;32;32766;-67
2022/05/19 03:01:35;;;;;;;;;;;;;;;14.57;35.99;100782.75;4448652;32;34181;-67
2022/05/19 03:04:05;;;;;;;;;;;;;;;14.56;35.80;100783.72;4446683;32;34779;-67
2022/05/19 03:06:34;;;;;;;;;;;;;;;14.54;35.78;100776.72;4445916;32;33548;-66
2022/05/19 03:09:04;;;;;;;;;;;;;;;14.57;35.92;100776.50;4449210;32;35308;-67
2022/05/19 03:11:32;;;;;;;;;;;;;;;14.50;36.34;100780.59;4447888;32;33510;-68
2022/05/19 03:14:05;;;;;;;;;;;;;;;14.51;36.21;100783.22;4448836;32;33159;-67
2022/05/19 03:16:33;;;;;;;;;;;;;;;14.52;36.27;100786.78;4448310;32;32752;-66
2022/05/19 03:19:02;;;;;;;;;;;;;;;14.43;36.34;100789.13;4447231;32;34621;-66
2022/05/19 03:21:30;;;;;;;;;;;;;;;14.47;36.21;100781.69;4447673;32;34192;-65
2022/05/19 03:23:58;;;;;;;;;;;;;;;14.39;36.47;100787.66;4445362;32;34531;-66
2022/05/19 03:26:27;;;;;;;;;;;;;;;14.48;36.11;100787.94;4449621;32;32795;-67
2022/05/19 03:29:00;;;;;;;;;;;;;;;14.50;36.11;100792.22;4449558;32;32895;-64
2022/05/19 03:31:38;;;;;;;;;;;;;;;14.56;36.44;100791.81;4440142;32;34956;-65
2022/05/19 03:34:07;;;;;;;;;;;;;;;14.54;36.07;100796.47;4437689;32;34207;-65
2022/05/19 03:36:35;;;;;;;;;;;;;;;14.56;36.04;100793.66;4443350;32;33513;-65
2022/05/19 03:39:04;;;;;;;;;;;;;;;14.62;36.22;100807.53;4449024;32;34626;-66
2022/05/19 03:41:32;;;;;;;;;;;;;;;14.67;36.19;100805.34;4446924;32;34297;-66
2022/05/19 03:44:02;;;;;;;;;;;;;;;14.68;36.02;100803.50;4444770;32;35495;-65
2022/05/19 03:46:31;;;;;;;;;;;;;;;14.71;35.56;100805.12;4450950;32;34004;-65
2022/05/19 03:48:59;;;;;;;;;;;;;;;14.72;35.67;100806.84;4450935;32;32514;-67
2022/05/19 03:51:28;;;;;;;;;;;;;;;14.75;35.55;100809.31;4447525;32;35193;-66
2022/05/19 03:53:56;;;;;;;;;;;;;;;14.75;35.88;100812.00;4447419;32;33742;-68
2022/05/19 03:56:25;;;;;;;;;;;;;;;14.78;35.52;100807.22;4448540;32;33514;-66
2022/05/19 03:58:53;;;;;;;;;;;;;;;14.81;35.55;100809.69;4450385;32;34269;-67
2022/05/19 04:01:22;;;;;;;;;;;;;;;14.96;35.91;100813.06;4447827;32;34343;-65
2022/05/19 04:03:51;;;;;;;;;;;;;;;15.11;36.00;100814.56;4446667;32;35520;-67
2022/05/19 04:06:20;;;;;;;;;;;;;;;15.21;35.84;100819.25;4450866;32;32538;-68
2022/05/19 04:08:48;;;;;;;;;;;;;;;15.13;35.72;100818.03;4449382;32;33490;-65
2022/05/19 04:11:18;;;;;;;;;;;;;;;15.12;35.91;100826.25;4449603;32;35202;-68
2022/05/19 04:13:46;;;;;;;;;;;;;;;15.10;36.09;100829.03;4443180;32;32589;-68
2022/05/19 04:16:17;;;;;;;;;;;;;;;14.92;36.73;100827.75;4447947;32;34401;-66
2022/05/19 04:18:54;;;;;;;;;;;;;;;14.97;36.19;100835.50;4444060;32;34151;-65
2022/05/19 04:21:23;;;;;;;;;;;;;;;15.00;36.26;100833.41;4449349;32;35747;-69
2022/05/19 04:23:52;;;;;;;;;;;;;;;15.16;35.96;100837.66;4449171;32;34479;-66
2022/05/19 04:26:21;;;;;;;;;;;;;;;15.29;35.75;100841.97;4448474;32;34552;-66
2022/05/19 04:28:49;;;;;;;;;;;;;;;15.46;35.35;100847.91;4447013;32;35850;-68
2022/05/19 04:31:19;;;;;;;;;;;;;;;15.44;34.98;100842.62;4449856;32;34504;-65
2022/05/19 04:33:48;;;;;;;;;;;;;;;15.61;34.35;100844.88;4444182;32;33454;-65
2022/05/19 04:36:17;;;;;;;;;;;;;;;15.75;33.97;100833.00;4448444;32;32528;-66
2022/05/19 04:38:46;;;;;;;;;;;;;;;15.96;33.40;100833.16;4438754;32;34134;-67
2022/05/19 04:41:15;;;;;;;;;;;;;;;16.14;33.31;100844.28;4450387;32;33668;-66
2022/05/19 04:43:46;;;;;;;;;;;;;;;16.30;32.84;100839.38;4447020;32;33455;-67
2022/05/19 04:46:14;;;;;;;;;;;;;;;16.48;33.18;100833.47;4442977;32;34594;-67
2022/05/19 04:48:42;;;;;;;;;;;;;;;16.67;33.46;100828.25;4449897;32;32899;-66
2022/05/19 04:51:11;;;;;;;;;;;;;;;16.80;34.33;100836.22;4445749;32;34568;-67
2022/05/19 04:53:40;;;;;;;;;;;;;;;17.14;34.36;100834.25;4448710;32;34320;-67
2022/05/19 04:56:08;;;;;;;;;;;;;;;17.35;34.82;100831.53;4449416;32;32358;-66
2022/05/19 04:58:36;;;;;;;;;;;;;;;17.70;34.18;100833.03;4448372;32;35390;-66
2022/05/19 05:01:06;;;;;;;;;;;;;;;17.98;33.54;100833.31;4446008;32;32548;-66
2022/05/19 05:03:35;;;;;;;;;;;;;;;18.14;33.11;100825.56;4446396;32;34516;-67
2022/05/19 05:06:08;;;;;;;;;;;;;;;18.23;32.57;100829.28;4449027;32;33710;-67
2022/05/19 05:08:36;;;;;;;;;;;;;;;18.42;32.08;100836.63;4447346;32;33889;-67
2022/05/19 05:11:04;;;;;;;;;;;;;;;18.52;32.56;100832.06;4446854;32;34353;-67
2022/05/19 05:13:33;;;;;;;;;;;;;;;18.54;33.98;100830.09;4450699;32;34848;-69
2022/05/19 05:16:01;;;;;;;;;;;;;;;18.78;33.43;100837.84;4445136;32;33253;-69
2022/05/19 05:18:30;;;;;;;;;;;;;;;18.82;33.51;100836.59;4445865;32;32610;-66
2022/05/19 05:21:02;;;;;;;;;;;;;;;18.73;34.10;100840.16;4448302;32;34519;-68
2022/05/19 05:23:32;;;;;;;;;;;;;;;18.79;34.45;100845.88;4447650;32;34366;-67
2022/05/19 05:26:03;;;;;;;;;;;;;;;19.15;33.73;100846.16;4445829;32;32425;-69
2022/05/19 05:28:31;;;;;;;;;;;;;;;19.33;33.19;100849.03;4450409;32;32896;-67
2022/05/19 05:31:00;;;;;;;;;;;;;;;19.31;32.25;100851.88;4442855;32;35163;-66
2022/05/19 05:33:29;;;;;;;;;;;;;;;19.08;33.73;100850.47;4448855;32;34885;-68
2022/05/19 05:35:58;;;;;;;;;;;;;;;19.34;33.05;100849.88;4441625;32;33405;-69
2022/05/19 05:38:26;;;;;;;;;;;;;;;19.47;32.34;100864.84;4449359;32;35372;-69
2022/05/19 05:40:55;;;;;;;;;;;;;;;19.37;33.22;100857.72;4448820;32;35527;-69
2022/05/19 05:43:23;;;;;;;;;;;;;;;19.58;33.20;100865.69;4449534;32;36370;-69
2022/05/19 05:45:53;;;;;;;;;;;;;;;19.53;33.40;100858.84;4446381;32;33160;-70
2022/05/19 05:48:21;;;;;;;;;;;;;;;19.33;34.15;100857.16;4444677;32;36085;-70
2022/05/19 05:50:54;;;;;;;;;;;;;;;19.57;34.21;100867.53;4447665;32;34810;-70
2022/05/19 05:53:28;;;;;;;;;;;;;;;19.76;32.32;100861.25;4448631;32;35487;-70
2022/05/19 05:56:15;;;;;;;;;;;;;;;19.52;33.02;100869.88;4450556;32;32194;-70
2022/05/19 05:58:53;;;;;;;;;;;;;;;19.57;34.31;100875.69;4449103;32;33139;-70
2022/05/19 06:01:37;;;;;;;;;;;;;;;20.04;33.21;100867.59;4451842;32;33685;-70
2022/05/19 06:04:15;;;;;;;;;;;;;;;19.94;32.83;100861.34;4449142;32;33410;-70
2022/05/19 06:06:59;;;;;;;;;;;;;;;19.66;32.46;100864.00;4449821;32;32103;-69
2022/05/19 06:09:43;;;;;;;;;;;;;;;20.13;32.76;100866.72;4445259;32;34247;-71
2022/05/19 06:12:24;;;;;;;;;;;;;;;20.43;31.64;100854.69;4442731;32;32710;-68
2022/05/19 06:14:56;;;;;;;;;;;;;;;20.26;31.02;100860.94;4447950;32;35615;-68
2022/05/19 06:17:33;;;;;;;;;;;;;;;20.48;31.52;100859.66;4446830;32;34956;-68
2022/05/19 06:20:08;;;;;;;;;;;;;;;20.52;32.09;100861.13;4451742;32;32892;-68
2022/05/19 06:22:46;;;;;;;;;;;;;;;20.52;32.96;100852.09;4445469;32;34156;-68
2022/05/19 06:25:25;;;;;;;;;;;;;;;20.76;33.70;100860.53;4442981;32;33194;-70
2022/05/19 06:28:00;;;;;;;;;;;;;;;21.11;31.33;100854.25;4450067;32;33603;-68
2022/05/19 06:30:35;;;;;;;;;;;;;;;21.09;30.65;100855.41;4448682;32;34916;-68
2022/05/19 06:33:05;;;;;;;;;;;;;;;20.83;29.93;100867.06;4448596;32;35513;-78
2022/05/19 06:35:33;;;;;;;;;;;;;;;21.14;30.71;100861.25;4449998;32;33627;-67
2022/05/19 06:38:07;;;;;;;;;;;;;;;21.29;31.64;100867.00;4449910;32;32315;-66
2022/05/19 06:40:45;;;;;;;;;;;;;;;21.08;28.21;100861.88;4387039;32;1983141;-67
2022/05/19 06:43:29;;;;;;;;;;;;;;;21.17;28.52;100856.34;4449903;32;34635;-68
2022/05/19 06:46:07;;;;;;;;;;;;;;;21.32;28.66;100859.38;4449005;32;33978;-66
2022/05/19 06:48:54;;;;;;;;;;;;;;;21.42;27.41;100859.31;4449604;32;32239;-67
2022/05/19 06:51:43;;;;;;;;;;;;;;;21.61;26.59;100859.12;4449624;32;34449;-68
2022/05/19 06:54:30;;;;;;;;;;;;;;;21.62;27.14;100860.81;4449600;32;32912;-67
2022/05/19 06:57:15;;;;;;;;;;;;;;;21.65;26.32;100864.25;4449031;32;35172;-67
2022/05/19 06:59:53;;;;;;;;;;;;;;;21.59;24.43;100858.41;4446030;32;33114;-66
2022/05/19 07:02:32;;;;;;;;;;;;;;;21.84;25.00;100862.16;4445341;32;33789;-67
2022/05/19 07:05:24;;;;;;;;;;;;;;;21.80;24.54;100860.78;4450983;32;33347;-67
2022/05/19 07:08:04;;;;;;;;;;;;;;;21.58;24.63;100864.03;4449193;32;33662;-67
2022/05/19 07:10:45;;;;;;;;;;;;;;;21.72;25.47;100868.03;4447159;32;33375;-68
2022/05/19 07:13:24;;;;;;;;;;;;;;;21.68;24.35;100867.50;4450217;32;32771;-67
2022/05/19 07:15:59;;;;;;;;;;;;;;;21.59;23.72;100869.31;4448274;32;33954;-66
2022/05/19 07:18:30;;;;;;;;;;;;;;;21.46;23.05;100863.41;4447678;32;33187;-66
2022/05/19 07:21:02;;;;;;;;;;;;;;;21.56;23.33;100871.50;4450171;32;32716;-67
2022/05/19 07:23:49;;;;;;;;;;;;;;;21.59;24.08;100866.59;4448374;32;33227;-67
2022/05/19 07:26:26;;;;;;;;;;;;;;;21.68;22.83;100863.94;4450676;32;32888;-66
2022/05/19 07:29:07;;;;;;;;;;;;;;;21.49;22.47;100862.25;4450968;32;33296;-68
2022/05/19 07:31:42;;;;;;;;;;;;;;;20.73;20.95;100860.81;4446329;32;33393;-67
2022/05/19 07:34:24;;;;;;;;;;;;;;;21.48;21.53;100866.84;4447206;32;33168;-67
2022/05/19 07:37:11;;;;;;;;;;;;;;;21.60;21.01;100868.31;4444202;32;33160;-66
2022/05/19 07:39:41;;;;;;;;;;;;;;;21.52;20.86;100868.25;4456520;32;34041;-65
2022/05/19 07:42:15;;;;;;;;;;;;;;;21.21;20.56;100856.88;4446498;32;32030;-66
2022/05/19 07:44:57;;;;;;;;;;;;;;;21.88;20.25;100854.50;4450244;32;33007;-67
2022/05/19 07:47:40;;;;;;;;;;;;;;;21.27;20.98;100855.41;4440012;32;32566;-68
2022/05/19 07:50:28;;;;;;;;;;;;;;;21.25;20.68;100854.69;4446418;32;34516;-66
2022/05/19 07:53:05;;;;;;;;;;;;;;;22.11;21.25;100857.53;4445714;32;33496;-67
2022/05/19 07:55:39;;;;;;;;;;;;;;;21.35;22.67;100855.53;4445573;32;32807;-67
2022/05/19 07:58:19;;;;;;;;;;;;;;;21.63;20.89;100858.94;4445902;32;35544;-67
2022/05/19 08:01:01;;;;;;;;;;;;;;;20.83;22.37;100864.34;4450527;32;35762;-67
2022/05/19 08:03:45;;;;;;;;;;;;;;;21.74;20.81;100858.69;4449631;32;32327;-67
2022/05/19 08:06:28;;;;;;;;;;;;;;;21.74;21.60;100857.84;4444811;32;34185;-67
2022/05/19 08:12:10;;;;;;;;;;;;;;;21.21;21.06;100861.47;4452256;32;34269;-68
2022/05/19 08:17:55;;;;;;;;;;;;;;;20.68;20.78;100866.75;4448842;32;34390;-67
2022/05/19 08:20:36;;;;;;;;;;;;;;;20.87;20.78;100859.47;4454266;32;33202;-68
2022/05/19 08:23:18;;;;;;;;;;;;;;;21.17;21.55;100852.75;4451154;32;34392;-68
2022/05/19 08:25:56;;;;;;;;;;;;;;;21.75;20.83;100859.53;4453800;32;32317;-68
2022/05/19 08:28:44;;;;;;;;;;;;;;;22.09;21.88;100859.59;4449467;32;32918;-66
2022/05/19 08:31:25;;;;;;;;;;;;;;;22.30;21.78;100848.28;4451913;32;33597;-66
2022/05/19 08:33:58;;;;;;;;;;;;;;;21.89;22.10;100853.50;4450996;32;33972;-67
2022/05/19 08:36:40;;;;;;;;;;;;;;;22.21;22.11;100850.13;4451740;32;32539;-67
2022/05/19 08:39:21;;;;;;;;;;;;;;;21.84;21.15;100848.53;4450108;32;34357;-67
2022/05/19 08:41:55;;;;;;;;;;;;;;;22.24;20.69;100855.25;4449875;32;32766;-67
2022/05/19 08:44:40;;;;;;;;;;;;;;;22.01;22.51;100848.62;4451281;32;33353;-67
2022/05/19 08:47:17;;;;;;;;;;;;;;;22.44;22.29;100844.06;4448634;32;33674;-68
2022/05/19 08:50:18;;;;;;;;;;;;;;;22.18;21.79;100852.31;4451949;32;32834;-76
2022/05/19 08:52:47;;;;;;;;;;;;;;;22.19;21.76;100851.31;4446085;32;33099;-69
2022/05/19 08:55:27;;;;;;;;;;;;;;;22.18;21.18;100844.13;4451032;32;34295;-66
2022/05/19 08:58:13;;;;;;;;;;;;;;;22.27;21.74;100851.34;4446306;32;33314;-67
2022/05/19 09:00:46;;;;;;;;;;;;;;;21.97;21.25;100848.09;4449033;32;33995;-69
2022/05/19 09:03:45;;;;;;;;;;;;;;;22.62;21.22;100836.63;4447730;32;34072;-68
2022/05/19 09:06:25;;;;;;;;;;;;;;;22.48;21.20;100846.31;4447449;32;32595;-68
2022/05/19 09:09:20;;;;;;;;;;;;;;;22.59;21.17;100847.88;4443730;32;31885;-68
2022/05/19 09:12:03;;;;;;;;;;;;;;;22.48;20.31;100837.28;4448300;32;34238;-68
2022/05/19 09:14:39;;;;;;;;;;;;;;;23.35;19.52;100830.44;4451296;32;34487;-67
2022/05/19 09:17:13;;;;;;;;;;;;;;;22.48;20.57;100827.22;4449488;32;34625;-70
2022/05/19 09:19:48;;;;;;;;;;;;;;;22.75;20.79;100834.28;4448883;32;32313;-68
2022/05/19 09:22:33;;;;;;;;;;;;;;;22.51;20.94;100826.03;4447208;32;34059;-69
2022/05/19 09:25:10;;;;;;;;;;;;;;;22.96;20.94;100828.38;4450948;32;34494;-67
2022/05/19 09:27:42;;;;;;;;;;;;;;;23.42;20.23;100836.91;4458500;32;34600;-70
2022/05/19 09:30:38;;;;;;;;;;;;;;;23.33;20.33;100829.75;4448171;32;33135;-71
2022/05/19 09:33:14;;;;;;;;;;;;;;;23.02;20.35;100832.31;4446889;32;33801;-67
2022/05/19 09:36:12;;;;;;;;;;;;;;;23.32;19.89;100829.94;4447762;32;32974;-66
2022/05/19 09:38:53;;;;;;;;;;;;;;;23.64;19.66;100829.87;4445441;32;32439;-67
2022/05/19 09:41:40;;;;;;;;;;;;;;;23.27;20.11;100827.69;4452029;32;33851;-64
2022/05/19 09:44:22;;;;;;;;;;;;;;;24.26;19.57;100825.62;4449886;32;32771;-66
2022/05/19 09:47:39;;;;;;;;;;;;;;;24.44;19.28;100809.00;4449716;32;35578;-66
2022/05/19 09:50:17;;;;;;;;;;;;;;;24.80;19.05;100812.03;4402304;32;32823;-66
2022/05/19 09:52:51;;;;;;;;;;;;;;;25.06;18.25;100814.41;4448897;32;33542;-67
2022/05/19 09:55:24;;;;;;;;;;;;;;;24.97;18.94;100815.50;4446076;32;32823;-66
2022/05/19 09:57:58;;;;;;;;;;;;;;;23.90;19.31;100810.56;4445729;32;32222;-66
2022/05/19 10:00:37;;;;;;;;;;;;;;;24.63;18.43;100797.59;4444840;32;33155;-67
2022/05/19 10:03:23;;;;;;;;;;;;;;;24.92;18.85;100804.25;4447770;32;33255;-66
2022/05/19 10:06:00;;;;;;;;;;;;;;;24.53;19.05;100808.78;4434481;32;34329;-66
2022/05/19 10:08:39;;;;;;;;;;;;;;;25.16;18.73;100797.75;4443134;32;33259;-66
2022/05/19 10:11:18;;;;;;;;;;;;;;;25.32;18.13;100789.37;4448131;32;33952;-66
2022/05/19 10:13:59;;;;;;;;;;;;;;;24.80;18.27;100788.22;4448977;32;32225;-67
2022/05/19 10:16:40;;;;;;;;;;;;;;;25.10;17.68;100785.59;4443860;32;33938;-66
2022/05/19 10:19:35;;;;;;;;;;;;;;;25.13;18.10;100784.41;4447364;32;32912;-67
2022/05/19 10:22:21;;;;;;;;;;;;;;;25.83;17.90;100781.34;4444443;32;37380;-65
2022/05/19 10:25:06;;;;;;;;;;;;;;;26.09;18.48;100774.50;4447331;32;32366;-65
2022/05/19 10:31:18;;;;;;;;;;;;;;;25.83;17.65;100775.84;4450388;32;35181;-67
2022/05/19 10:34:14;;;;;;;;;;;;;;;25.90;16.83;100778.69;4451877;32;35819;-66
2022/05/19 10:37:01;;;;;;;;;;;;;;;26.62;16.31;100769.69;4451049;32;32996;-68
2022/05/19 10:39:50;;;;;;;;;;;;;;;26.75;15.93;100760.75;4449530;32;35277;-67
2022/05/19 10:42:37;;;;;;;;;;;;;;;26.76;15.92;100759.69;4451545;32;34782;-71
2022/05/19 10:45:07;;;;;;;;;;;;;;;26.02;16.35;100755.22;4450323;32;33749;-68
2022/05/19 10:47:42;;;;;;;;;;;;;;;26.02;15.75;100747.84;4452082;32;33852;-66
2022/05/19 10:50:16;;;;;;;;;;;;;;;26.10;16.90;100746.91;4448085;32;34269;-67
2022/05/19 10:52:56;;;;;;;;;;;;;;;25.92;16.80;100741.81;4443345;32;34463;-67
2022/05/19 10:55:33;;;;;;;;;;;;;;;25.65;16.46;100745.19;4462388;32;34445;-67
2022/05/19 10:58:08;;;;;;;;;;;;;;;25.09;16.53;100745.56;4447711;32;32415;-66
2022/05/19 11:00:37;;;;;;;;;;;;;;;25.43;16.40;100739.63;4451234;32;33283;-66
2022/05/19 11:03:10;;;;;;;;;;;;;;;25.85;16.91;100731.81;4447223;32;33125;-68
2022/05/19 11:05:45;;;;;;;;;;;;;;;26.19;17.24;100733.91;4449574;32;33637;-66
2022/05/19 11:08:37;;;;;;;;;;;;;;;26.40;16.73;100717.47;4445868;32;33852;-68
2022/05/19 11:11:20;;;;;;;;;;;;;;;26.10;16.74;100721.34;4441141;32;33978;-66
2022/05/19 11:13:56;;;;;;;;;;;;;;;25.90;17.02;100724.69;4445870;32;34514;-65
2022/05/19 11:16:34;;;;;;;;;;;;;;;26.27;17.47;100716.50;4446124;32;33437;-65
2022/05/19 11:19:14;;;;;;;;;;;;;;;25.71;17.44;100712.38;4443088;32;32459;-67
2022/05/19 11:21:51;;;;;;;;;;;;;;;26.46;16.91;100705.72;4440572;32;32832;-66
2022/05/19 11:24:33;;;;;;;;;;;;;;;26.89;15.67;100710.38;4444690;32;34092;-66
2022/05/19 11:27:16;;;;;;;;;;;;;;;26.71;16.22;100708.13;4444364;32;33259;-66
2022/05/19 11:29:49;;;;;;;;;;;;;;;26.41;15.93;100701.84;4443022;32;33619;-69
2022/05/19 11:32:24;;;;;;;;;;;;;;;26.56;16.05;100688.97;4444251;32;32284;-67
2022/05/19 11:34:57;;;;;;;;;;;;;;;26.68;15.30;100694.78;4443099;32;33860;-67
2022/05/19 11:37:32;;;;;;;;;;;;;;;26.41;15.67;100688.97;4443498;32;33176;-67
2022/05/19 11:40:07;;;;;;;;;;;;;;;26.11;16.01;100684.66;4447575;32;33469;-67
2022/05/19 11:42:58;;;;;;;;;;;;;;;26.49;15.68;100679.81;4447122;32;34664;-67
2022/05/19 11:45:52;;;;;;;;;;;;;;;26.47;15.46;100685.44;4440671;32;34527;-66
2022/05/19 11:57:20;;;;;;;;;;;;;;;26.04;16.07;100670.03;4434163;32;35455;-70
2022/05/19 11:59:50;;;;;;;;;;;;;;;26.52;15.41;100671.19;4441429;32;34392;-68
2022/05/19 12:02:20;;;;;;;;;;;;;;;26.51;16.31;100666.72;4441270;32;33053;-68
2022/05/19 12:04:52;;;;;;;;;;;;;;;26.32;16.07;100659.12;4439321;32;34165;-68
2022/05/19 12:07:24;;;;;;;;;;;;;;;26.50;15.31;100655.97;4448944;32;34196;-68
2022/05/19 12:09:58;;;;;;;;;;;;;;;26.56;16.30;100661.50;4441817;32;33873;-68
2022/05/19 12:12:36;;;;;;;;;;;;;;;26.33;16.59;100658.94;4444514;32;32203;-67
2022/05/19 12:15:04;;;;;;;;;;;;;;;26.93;15.97;100651.25;4435050;32;34556;-68
2022/05/19 12:17:33;;;;;;;;;;;;;;;26.90;16.26;100647.03;4443968;32;33969;-68
2022/05/19 12:20:03;;;;;;;;;;;;;;;27.25;15.61;100647.06;4442808;32;34294;-69
2022/05/19 12:22:45;;;;;;;;;;;;;;;26.85;16.20;100648.66;4443793;32;34458;-70
2022/05/19 12:25:27;;;;;;;;;;;;;;;26.78;15.80;100639.53;4444051;32;34896;-68
2022/05/19 12:28:05;;;;;;;;;;;;;;;25.86;15.50;100643.00;4442983;32;32764;-68
2022/05/19 12:33:22;;;;;;;;;;;;;;;25.77;16.42;100637.56;4441528;32;34606;-67
2022/05/19 12:35:52;;;;;;;;;;;;;;;26.22;16.66;100634.75;4444583;32;33830;-69
2022/05/19 12:38:28;;;;;;;;;;;;;;;26.41;15.54;100630.50;4449914;32;33838;-68
2022/05/19 12:40:57;;;;;;;;;;;;;;;26.49;16.64;100630.41;4444865;32;33195;-66
2022/05/19 12:43:30;;;;;;;;;;;;;;;25.90;16.83;100634.19;4440180;32;33516;-69
2022/05/19 12:46:00;;;;;;;;;;;;;;;25.98;16.70;100627.75;4446754;32;33095;-68
2022/05/19 12:48:31;;;;;;;;;;;;;;;26.77;16.13;100630.41;4445129;32;32842;-67
2022/05/19 12:51:13;;;;;;;;;;;;;;;26.09;16.83;100629.12;4444458;32;34096;-67
2022/05/19 12:53:44;;;;;;;;;;;;;;;26.53;16.97;100634.44;4443857;32;32816;-67
2022/05/19 12:56:32;;;;;;;;;;;;;;;26.89;16.53;100627.97;4441832;32;33937;-67
2022/05/19 12:59:02;;;;;;;;;;;;;;;26.86;15.69;100626.47;4439335;32;35757;-65
2022/05/19 13:01:31;;;;;;;;;;;;;;;26.81;17.37;100629.00;4439119;32;35785;-68
2022/05/19 13:04:03;;;;;;;;;;;;;;;26.83;17.14;100629.63;4443734;32;32960;-66
2022/05/19 13:06:30;;;;;;;;;;;;;;;26.24;16.99;100614.28;4445739;32;33782;-66
2022/05/19 13:09:01;;;;;;;;;;;;;;;26.91;16.44;100603.91;4446907;32;34081;-66
2022/05/19 13:11:31;;;;;;;;;;;;;;;26.74;16.86;100599.75;4430517;32;34115;-66
2022/05/19 13:14:08;;;;;;;;;;;;;;;26.31;17.47;100606.13;4442924;32;33334;-66
2022/05/19 13:16:41;;;;;;;;;;;;;;;26.32;17.61;100605.06;4439514;32;34280;-66
2022/05/19 13:19:14;;;;;;;;;;;;;;;26.29;17.39;100599.97;4443744;32;35172;-66
2022/05/19 13:21:46;;;;;;;;;;;;;;;25.55;17.73;100592.84;4439946;32;35467;-65
2022/05/19 13:24:15;;;;;;;;;;;;;;;26.62;16.54;100589.34;4449800;32;32266;-65
2022/05/19 13:26:43;;;;;;;;;;;;;;;26.91;17.02;100596.53;4446276;32;34127;-66
2022/05/19 13:32:07;;;;;;;;;;;;;;;26.80;15.84;100593.47;4442563;32;35466;-68
2022/05/19 13:34:48;;;;;;;;;;;;;;;26.38;16.62;100586.97;4441187;32;33364;-66
2022/05/19 13:37:36;;;;;;;;;;;;;;;26.75;16.35;100585.84;4449210;32;34365;-68